Bloomington, IN (47401)

7:10 PM EDT on June 27, 2017 (GMT -0400)
Johnson Turtle Field | | Change Station
Active Advisory: Flood Warning

Elev 686 ft 39.12 °N, 86.51 °W | Updated 13 minutes ago

Clear
Clear
78.1 °F
Feels Like 79 °F
N
0.0
Wind Variable Wind from SSW
Gusts 2.0 mph

Today
High -- | Low -- °F
--% Chance of Precip.
Yesterday
High -- | Low -- °F
Precip. -- in
Pressure 30.08 in
Visibility 10.0 miles
Clouds Clear
Heat Index 79 °F
Dew Point 54 °F
Humidity 43%
Rainfall 0.00 in
Snow Depth Not available.
6:22 AM 9:16 PM
Waxing Crescent, 20% visible
METAR KBMG 272253Z 28004KT 10SM CLR 23/07 A3009 RMK AO2 SLP184 T02330072
Pressure 30.08 in
Visibility 10.0 miles
Clouds Clear
Heat Index 79 °F
Dew Point 54 °F
Humidity 43%
Rainfall 0.00 in
Snow Depth Not available.
6:22 AM 9:16 PM
Waxing Crescent, 20% visible
METAR KBMG 272253Z 28004KT 10SM CLR 23/07 A3009 RMK AO2 SLP184 T02330072

Get Your Daily Forecast Email!

Thanks for signing up!

Be on the lookout for a verification email in your inbox.

You'll start receiving severe weather alerts in your inbox..

×

10-Day Weather Forecast

Almanac

Astronomy

Jun. 27, 2017 Rise Set
Actual Time
Civil Twilight
Nautical Twilight
Astronomical Twilight
Moon
Length of Visible Light
Length of Day
Tomorrow will be .
, % of the Moon is Illuminated

Today's Extremes

State Highs State Lows

Community

WunderPhotos

Category 6

Welcome to Category 6. This is the collective home for Weather Underground's featured writeups by Dr. Jeff Masters (right), Bob Henson (left), Chris Burt, and other regular contributors.

Nearby

Air Quality

  Air Quality AQ Index Pollutant
Not available.

Snow Depth

Station Depth Elevation

Earthquake Activity

City Distance Mag. Time & Date
Minimum magnitude displayed is 2.5.

Coastal Water Temperatures

Place Temperature

Stations

Nearby Weather Stations

Station Location Temp. Windchill Dew Point Humidity Wind Precip. Elev Updated Type
                   

Watches & Warnings

Flood Warning
Issued: 12:05 PM EDT Jun. 27, 2017 – National Weather Service

The Flood Warning continues for
the White River at Spencer.
* Until Wednesday morning.
* At 11:30 am Tuesday the stage was 14.1 feet.
* Flood stage is 14.0 feet.
* Forecast... the river will continue to fall to below flood stage by
this evening.
* At 14.0 feet... lowland flooding begins in the Spencer and Gosport
areas. The river begins to backup rattlesnake, fall, mccormicks,
Limestone, big, and Bean Blossom creeks. Spencer public access
site begins to flood.


Lat... Lon 3934 8665 3928 8675 3911 8692 3913 8696
      3933 8674 3936 8666